Mezen', Russia
Current Conditions -  °F | °C
As of 11:30 PM on Friday 31 Oct 2014 (Local Time) from ULAA Reporting Station
Clear Clear  
Wind Chill: 21°   Ceiling: Unl
Heat Index: 27°   Visibility: 6mi
Dew Point: 27°   Wind: 4mph
Humidity: 100%   Direction: 320°NW
Pressure: 29.97"   Gusts: NA
Location:  65.85°N, 44.24°E
Report Text: ULAA 312030Z 32002MPS CAVOK M03/M03 Q1015 NOSIG RMK QFE760/1013 SC037
Loading
Personal Weather Stations






























Interactive Weather Map
Tropical Storm Tracking
New forecast layout! Learn more

10-Day Weather Forecast

Advertisements
Track Severe Weather on mobile